createdAt,value
2018-12-17T00:01:21.760Z,23.87
2018-12-17T00:03:50.339Z,23.86
2018-12-17T00:06:19.001Z,23.86
2018-12-17T00:08:47.784Z,23.84
2018-12-17T00:11:16.400Z,23.86
2018-12-17T00:13:45.044Z,23.85
2018-12-17T00:16:13.713Z,23.86
2018-12-17T00:18:42.374Z,23.85
2018-12-17T00:21:11.086Z,23.84
2018-12-17T00:23:39.796Z,23.84
2018-12-17T00:26:08.569Z,23.84
2018-12-17T00:28:37.193Z,23.83
2018-12-17T00:31:05.822Z,23.84
2018-12-17T00:33:34.409Z,23.83
2018-12-17T00:36:03.079Z,23.82
2018-12-17T00:38:31.727Z,23.84
2018-12-17T00:41:00.324Z,23.83
2018-12-17T00:43:29.373Z,23.82
2018-12-17T00:45:58.267Z,23.82
2018-12-17T00:48:27.235Z,23.81
2018-12-17T00:50:55.907Z,23.82
2018-12-17T00:53:24.503Z,23.82
2018-12-17T00:55:53.186Z,23.81
2018-12-17T00:58:21.829Z,23.81
2018-12-17T01:00:50.470Z,23.82
2018-12-17T01:03:19.122Z,23.81
2018-12-17T01:05:47.722Z,23.81
2018-12-17T01:08:16.332Z,23.81
2018-12-17T01:10:45.011Z,23.81
2018-12-17T01:13:13.683Z,23.81
2018-12-17T01:15:42.432Z,23.80
2018-12-17T01:18:11.081Z,23.81
2018-12-17T01:20:39.684Z,23.80
2018-12-17T01:23:08.301Z,23.80
2018-12-17T01:25:36.914Z,23.80
2018-12-17T01:28:05.564Z,23.80
2018-12-17T01:30:34.245Z,23.80
2018-12-17T01:33:03.035Z,23.79
2018-12-17T01:35:31.630Z,23.79
2018-12-17T01:38:00.503Z,23.79
2018-12-17T01:40:29.176Z,23.79
2018-12-17T01:42:57.937Z,23.78
2018-12-17T01:45:26.552Z,23.79
2018-12-17T01:47:55.300Z,23.78
2018-12-17T01:50:23.951Z,23.78
2018-12-17T01:52:52.646Z,23.77
2018-12-17T01:55:21.428Z,23.78
2018-12-17T01:57:50.063Z,23.76
2018-12-17T02:00:18.921Z,23.78
2018-12-17T02:02:47.646Z,23.75
2018-12-17T02:05:16.395Z,23.76
2018-12-17T02:07:45.028Z,23.77
2018-12-17T02:10:13.676Z,23.76
2018-12-17T02:12:42.333Z,23.77
2018-12-17T02:15:10.988Z,23.76
2018-12-17T02:17:39.612Z,23.75
2018-12-17T02:20:08.511Z,23.75
2018-12-17T02:22:37.156Z,23.76
2018-12-17T02:25:06.018Z,23.75
2018-12-17T02:27:35.604Z,23.74
2018-12-17T02:30:04.689Z,23.75
2018-12-17T02:32:33.303Z,23.75
2018-12-17T02:35:01.911Z,23.75
2018-12-17T02:37:30.549Z,23.75
2018-12-17T02:39:59.261Z,23.75
2018-12-17T02:42:27.839Z,23.74
2018-12-17T02:44:56.468Z,23.74
2018-12-17T02:47:24.995Z,23.75
2018-12-17T02:49:53.662Z,23.73
2018-12-17T02:52:22.307Z,23.73
2018-12-17T02:54:51.223Z,23.76
2018-12-17T02:57:19.835Z,23.73
2018-12-17T02:59:48.413Z,23.74
2018-12-17T03:02:17.015Z,23.74
2018-12-17T03:04:45.615Z,23.75
2018-12-17T03:07:14.187Z,23.74
2018-12-17T03:09:42.743Z,23.73
2018-12-17T03:12:11.383Z,23.74
2018-12-17T03:14:40.589Z,23.73
2018-12-17T03:17:09.344Z,23.74
2018-12-17T03:19:37.947Z,23.74
2018-12-17T03:22:06.682Z,23.73
2018-12-17T03:24:35.308Z,23.73
2018-12-17T03:27:03.959Z,23.74
2018-12-17T03:29:32.762Z,23.73
2018-12-17T03:32:01.409Z,23.74
2018-12-17T03:34:30.029Z,23.72
2018-12-17T03:36:58.580Z,23.73
2018-12-17T03:39:27.189Z,23.74
2018-12-17T03:41:55.779Z,23.73
2018-12-17T03:44:24.463Z,23.73
2018-12-17T03:46:53.085Z,23.74
2018-12-17T03:49:21.679Z,23.75
2018-12-17T03:51:50.272Z,23.73
2018-12-17T03:54:18.894Z,23.72
2018-12-17T03:56:47.527Z,23.73
2018-12-17T03:59:16.173Z,23.73
2018-12-17T04:01:44.800Z,23.73
2018-12-17T04:04:13.445Z,23.71
2018-12-17T04:06:42.103Z,23.72
2018-12-17T04:09:11.064Z,23.72
2018-12-17T04:11:39.687Z,23.71
2018-12-17T04:14:08.335Z,23.72
2018-12-17T04:16:36.927Z,23.72
2018-12-17T04:19:05.580Z,23.72
2018-12-17T04:21:34.188Z,23.71
2018-12-17T04:24:02.784Z,23.70
2018-12-17T04:26:31.403Z,23.72
2018-12-17T04:29:06.585Z,23.72
2018-12-17T04:31:30.985Z,23.71
2018-12-17T04:33:59.613Z,23.71
2018-12-17T04:36:28.203Z,23.70
2018-12-17T04:38:56.846Z,23.70
2018-12-17T04:41:25.609Z,23.70
2018-12-17T04:43:54.268Z,23.69
2018-12-17T04:46:22.964Z,23.70
2018-12-17T04:48:51.548Z,23.70
2018-12-17T04:51:20.312Z,23.70
2018-12-17T04:53:48.979Z,23.70
2018-12-17T04:56:17.789Z,23.70
2018-12-17T04:58:46.423Z,23.69
2018-12-17T05:01:15.080Z,23.69
2018-12-17T05:03:43.684Z,23.68
2018-12-17T05:06:12.368Z,23.68
2018-12-17T05:08:40.974Z,23.68
2018-12-17T05:11:09.688Z,23.69
2018-12-17T05:13:38.353Z,23.69
2018-12-17T05:16:07.062Z,23.69
2018-12-17T05:18:35.615Z,23.69
2018-12-17T05:21:05.392Z,23.68
2018-12-17T05:23:33.971Z,23.68
2018-12-17T05:26:02.552Z,23.68
2018-12-17T05:28:31.190Z,23.67
2018-12-17T05:30:59.775Z,23.68
2018-12-17T05:33:28.512Z,23.67
2018-12-17T05:35:57.592Z,23.67
2018-12-17T05:38:26.609Z,23.67
2018-12-17T05:40:55.406Z,23.67
2018-12-17T05:43:24.009Z,23.68
2018-12-17T05:45:52.750Z,23.67
2018-12-17T05:48:21.407Z,23.66
2018-12-17T05:50:50.088Z,23.66
2018-12-17T05:53:18.800Z,23.66
2018-12-17T05:55:47.470Z,23.66
2018-12-17T05:58:16.074Z,23.66
2018-12-17T06:00:44.808Z,23.66
2018-12-17T06:03:13.703Z,23.66
2018-12-17T06:05:42.292Z,23.65
2018-12-17T06:08:13.150Z,23.66
2018-12-17T06:10:41.787Z,23.65
2018-12-17T06:13:10.399Z,23.65
2018-12-17T06:15:39.047Z,23.66
2018-12-17T06:18:07.620Z,23.65
2018-12-17T06:20:36.228Z,23.64
2018-12-17T06:23:04.874Z,23.64
2018-12-17T06:25:34.047Z,23.63
2018-12-17T06:28:02.623Z,23.62
2018-12-17T06:30:31.211Z,23.62
2018-12-17T06:32:59.885Z,23.61
2018-12-17T06:35:28.494Z,23.61
2018-12-17T06:37:57.141Z,23.61
2018-12-17T06:40:25.702Z,23.60
2018-12-17T06:42:54.312Z,23.56
2018-12-17T06:45:22.919Z,23.60
2018-12-17T06:47:51.568Z,23.60
2018-12-17T06:50:20.191Z,23.60
2018-12-17T06:52:48.781Z,23.60
2018-12-17T06:55:17.443Z,23.59
2018-12-17T06:57:46.446Z,23.59
2018-12-17T07:00:15.124Z,23.58
2018-12-17T07:02:43.776Z,23.58
2018-12-17T07:05:12.443Z,23.58
2018-12-17T07:07:41.076Z,23.58
2018-12-17T07:10:09.665Z,23.56
2018-12-17T07:12:38.238Z,23.56
2018-12-17T07:15:07.688Z,23.56
2018-12-17T07:17:36.356Z,23.56
2018-12-17T07:20:05.259Z,23.55
2018-12-17T07:22:33.878Z,23.54
2018-12-17T07:25:02.637Z,23.53
2018-12-17T07:27:31.280Z,23.53
2018-12-17T07:29:59.854Z,23.51
2018-12-17T07:32:28.533Z,23.51
2018-12-17T07:34:57.391Z,23.51
2018-12-17T07:37:26.016Z,23.50
2018-12-17T07:39:54.784Z,23.49
2018-12-17T07:42:23.408Z,23.50
2018-12-17T07:44:52.213Z,23.48
2018-12-17T07:47:20.826Z,23.48
2018-12-17T07:49:49.506Z,23.48
2018-12-17T07:52:18.087Z,23.47
2018-12-17T07:54:46.795Z,23.47
2018-12-17T07:57:15.483Z,23.47
2018-12-17T07:59:44.161Z,23.47
2018-12-17T08:02:12.852Z,23.47
2018-12-17T08:04:41.523Z,23.47
2018-12-17T08:07:10.259Z,23.47
2018-12-17T08:09:39.004Z,23.47
2018-12-17T08:12:07.886Z,23.48
2018-12-17T08:14:36.705Z,23.49
2018-12-17T08:17:05.343Z,23.49
2018-12-17T08:19:34.152Z,23.48
2018-12-17T08:22:03.010Z,23.49
2018-12-17T08:24:31.861Z,23.50
2018-12-17T08:27:00.680Z,23.49
2018-12-17T08:29:29.440Z,23.49
2018-12-17T08:31:58.187Z,23.49
2018-12-17T08:34:27.187Z,23.49
2018-12-17T08:36:56.191Z,23.49
2018-12-17T08:39:24.888Z,23.51
2018-12-17T08:41:53.781Z,23.52
2018-12-17T08:44:22.556Z,23.53
2018-12-17T08:46:51.176Z,23.53
2018-12-17T08:49:20.204Z,23.55
2018-12-17T08:51:48.800Z,23.55
2018-12-17T08:54:17.498Z,23.55
2018-12-17T08:56:46.127Z,23.56
2018-12-17T08:59:14.744Z,23.58
2018-12-17T09:01:43.614Z,23.59
2018-12-17T09:04:12.375Z,23.61
2018-12-17T09:06:41.199Z,23.61
2018-12-17T09:09:10.681Z,23.62
2018-12-17T09:11:39.702Z,23.63
2018-12-17T09:14:08.526Z,23.64
2018-12-17T09:16:37.275Z,23.65
2018-12-17T09:19:06.032Z,23.67
2018-12-17T09:21:34.891Z,23.67
2018-12-17T09:24:03.823Z,23.67
2018-12-17T09:26:32.681Z,23.69
2018-12-17T09:29:01.514Z,23.69
2018-12-17T09:31:30.319Z,23.70
2018-12-17T09:33:59.217Z,23.70
2018-12-17T09:36:28.003Z,23.69
2018-12-17T09:38:56.827Z,23.70
2018-12-17T09:41:25.528Z,23.71
2018-12-17T09:43:54.410Z,23.71
2018-12-17T09:46:23.311Z,23.72
2018-12-17T09:48:52.331Z,23.73
2018-12-17T09:51:21.394Z,23.73
2018-12-17T09:53:50.131Z,23.73
2018-12-17T09:56:18.887Z,23.74
2018-12-17T09:58:47.791Z,23.73
2018-12-17T10:01:16.784Z,23.74
2018-12-17T10:03:45.490Z,23.74
2018-12-17T10:06:14.323Z,23.75
2018-12-17T10:08:43.283Z,23.76
2018-12-17T10:11:12.019Z,23.76
2018-12-17T10:13:40.717Z,23.76
2018-12-17T10:16:09.634Z,23.76
2018-12-17T10:18:38.310Z,23.77
2018-12-17T10:21:06.986Z,23.77
2018-12-17T10:23:36.020Z,23.77
2018-12-17T10:26:04.795Z,23.76
2018-12-17T10:28:33.789Z,23.77
2018-12-17T10:31:03.099Z,23.76
2018-12-17T10:33:31.995Z,23.78
2018-12-17T10:36:00.643Z,23.77
2018-12-17T10:38:29.417Z,23.76
2018-12-17T10:40:58.125Z,23.77
2018-12-17T10:43:26.780Z,23.77
2018-12-17T10:45:55.384Z,23.76
2018-12-17T10:48:24.085Z,23.77
2018-12-17T10:50:53.092Z,23.77
2018-12-17T10:53:21.856Z,23.77
2018-12-17T10:55:50.663Z,23.76
2018-12-17T10:58:19.333Z,23.78
2018-12-17T11:00:53.388Z,23.77
2018-12-17T11:03:26.223Z,23.78
2018-12-17T11:05:55.575Z,23.77
2018-12-17T11:08:24.415Z,23.78
2018-12-17T11:10:53.272Z,23.77
2018-12-17T11:13:21.904Z,23.77
2018-12-17T11:15:51.056Z,23.77
2018-12-17T11:18:19.927Z,23.77
2018-12-17T11:20:48.888Z,23.77
2018-12-17T11:23:18.166Z,23.77
2018-12-17T11:25:46.971Z,23.77
2018-12-17T11:28:15.601Z,23.77
2018-12-17T11:30:46.689Z,23.78
2018-12-17T11:33:15.208Z,23.77
2018-12-17T11:35:44.178Z,23.78
2018-12-17T11:38:13.037Z,23.78
2018-12-17T11:40:42.171Z,23.77
2018-12-17T11:43:11.048Z,23.78
2018-12-17T11:45:40.114Z,23.77
2018-12-17T11:48:09.099Z,23.78
2018-12-17T11:50:37.808Z,23.79
2018-12-17T11:53:06.823Z,23.78
2018-12-17T11:55:35.598Z,23.79
2018-12-17T11:58:12.884Z,23.80
2018-12-17T12:00:46.288Z,23.80
2018-12-17T12:03:16.755Z,23.79
2018-12-17T12:05:45.856Z,23.78
2018-12-17T12:08:14.763Z,23.78
2018-12-17T12:10:43.604Z,23.79
2018-12-17T12:13:12.267Z,23.79
2018-12-17T12:15:40.882Z,23.80
2018-12-17T12:18:09.823Z,23.79
2018-12-17T12:20:38.453Z,23.80
2018-12-17T12:23:07.223Z,23.79
2018-12-17T12:25:36.148Z,23.81
2018-12-17T12:28:06.015Z,23.80
2018-12-17T12:30:34.786Z,23.81
2018-12-17T12:33:03.627Z,23.80
2018-12-17T12:35:32.501Z,23.80
2018-12-17T12:38:01.500Z,23.80
2018-12-17T12:40:30.324Z,23.80
2018-12-17T12:42:59.203Z,23.56
2018-12-17T12:45:27.968Z,23.81
2018-12-17T12:47:56.904Z,23.81
2018-12-17T12:50:25.809Z,23.82
2018-12-17T12:52:54.773Z,23.82
2018-12-17T12:55:23.659Z,23.80
2018-12-17T12:57:52.471Z,23.81
2018-12-17T13:00:21.369Z,23.80
2018-12-17T13:02:50.079Z,23.80
2018-12-17T13:05:18.930Z,23.80
2018-12-17T13:07:47.874Z,23.79
2018-12-17T13:10:16.633Z,23.79
2018-12-17T13:12:45.380Z,23.79
2018-12-17T13:15:14.353Z,23.79
2018-12-17T13:17:43.278Z,23.78
2018-12-17T13:20:12.089Z,23.76
2018-12-17T13:22:41.011Z,23.76
2018-12-17T13:25:14.974Z,23.76
2018-12-17T13:27:43.656Z,23.75
2018-12-17T13:30:12.683Z,23.76
2018-12-17T13:32:41.443Z,23.75
2018-12-17T13:35:10.596Z,23.73
2018-12-17T13:37:39.226Z,23.73
2018-12-17T13:40:09.777Z,23.74
2018-12-17T13:42:38.449Z,23.72
2018-12-17T13:45:07.691Z,23.73
2018-12-17T13:47:36.449Z,23.74
2018-12-17T13:50:11.918Z,23.72
2018-12-17T13:52:46.008Z,23.72
2018-12-17T13:55:15.236Z,23.72
2018-12-17T13:57:44.136Z,23.72
2018-12-17T14:00:13.638Z,23.71
2018-12-17T14:02:42.476Z,23.71
2018-12-17T14:05:11.430Z,23.71
2018-12-17T14:07:40.453Z,23.72
2018-12-17T14:10:16.017Z,23.71
2018-12-17T14:12:45.050Z,23.71
2018-12-17T14:15:14.007Z,23.71
2018-12-17T14:17:47.157Z,23.70
2018-12-17T14:20:21.242Z,23.70
2018-12-17T14:22:50.103Z,23.70
2018-12-17T14:25:19.008Z,23.71
2018-12-17T14:27:48.552Z,23.69
2018-12-17T14:30:17.289Z,23.71
2018-12-17T14:32:46.078Z,23.70
2018-12-17T14:35:15.009Z,23.70
2018-12-17T14:37:49.129Z,23.70
2018-12-17T14:40:18.163Z,23.69
2018-12-17T14:42:46.931Z,23.70
2018-12-17T14:45:15.942Z,23.70
2018-12-17T14:47:44.873Z,23.69
2018-12-17T14:50:13.919Z,23.69
2018-12-17T14:52:42.661Z,23.70
2018-12-17T14:55:11.835Z,23.70
2018-12-17T14:57:40.674Z,23.69
2018-12-17T15:00:09.956Z,23.70
2018-12-17T15:02:38.777Z,23.70
2018-12-17T15:05:08.077Z,23.70
2018-12-17T15:07:36.992Z,23.69
2018-12-17T15:10:06.210Z,23.68
2018-12-17T15:12:35.068Z,23.70
2018-12-17T15:15:04.925Z,23.70
2018-12-17T15:17:33.606Z,23.70
2018-12-17T15:20:02.848Z,23.70
2018-12-17T15:22:31.707Z,23.71
2018-12-17T15:25:00.689Z,23.71
2018-12-17T15:27:29.429Z,23.71
2018-12-17T15:29:58.397Z,23.72
2018-12-17T15:32:27.470Z,23.73
2018-12-17T15:34:56.430Z,23.72
2018-12-17T15:37:25.475Z,23.74
2018-12-17T15:39:54.511Z,23.75
2018-12-17T15:42:23.574Z,23.75
2018-12-17T15:44:52.563Z,23.76
2018-12-17T15:47:21.270Z,23.77
2018-12-17T15:49:50.180Z,23.77
2018-12-17T15:52:19.341Z,23.77
2018-12-17T15:54:48.192Z,23.78
2018-12-17T15:57:17.184Z,23.78
2018-12-17T15:59:46.024Z,23.78
2018-12-17T16:02:14.953Z,23.79
2018-12-17T16:04:43.936Z,23.79
2018-12-17T16:07:12.915Z,23.80
2018-12-17T16:09:41.840Z,23.80
2018-12-17T16:12:11.207Z,23.80
2018-12-17T16:14:40.111Z,23.79
2018-12-17T16:17:09.049Z,23.80
2018-12-17T16:19:37.762Z,23.82
2018-12-17T16:22:06.844Z,23.81
2018-12-17T16:24:35.681Z,23.81
2018-12-17T16:27:04.793Z,23.82
2018-12-17T16:29:33.672Z,23.81
2018-12-17T16:32:02.482Z,23.81
2018-12-17T16:34:31.108Z,23.81
2018-12-17T16:37:00.055Z,23.82
2018-12-17T16:39:29.130Z,23.82
2018-12-17T16:41:57.732Z,23.82
2018-12-17T16:44:26.739Z,23.82
2018-12-17T16:46:55.513Z,23.83
2018-12-17T16:49:24.489Z,23.82
2018-12-17T16:51:53.412Z,23.82
2018-12-17T16:54:22.683Z,23.81
2018-12-17T16:56:51.793Z,23.82
2018-12-17T16:59:20.938Z,23.82
2018-12-17T17:01:49.818Z,23.82
2018-12-17T17:04:18.445Z,23.83
2018-12-17T17:06:47.337Z,23.83
2018-12-17T17:09:16.251Z,23.82
2018-12-17T17:11:45.200Z,23.83
2018-12-17T17:14:14.036Z,23.83
2018-12-17T17:16:42.961Z,23.82
2018-12-17T17:19:12.166Z,23.83
2018-12-17T17:21:41.015Z,23.84
2018-12-17T17:24:09.928Z,23.82
2018-12-17T17:26:38.715Z,23.81
2018-12-17T17:29:07.677Z,23.83
2018-12-17T17:31:36.605Z,23.83
2018-12-17T17:34:05.836Z,23.82
2018-12-17T17:36:34.828Z,23.82
2018-12-17T17:39:04.763Z,23.83
2018-12-17T17:41:33.776Z,23.83
2018-12-17T17:44:03.608Z,23.82
2018-12-17T17:46:32.283Z,23.83
2018-12-17T17:49:02.577Z,23.83
2018-12-17T17:51:31.279Z,23.83
2018-12-17T17:53:59.931Z,23.85
2018-12-17T17:56:28.621Z,23.85
2018-12-17T17:58:57.265Z,23.86
2018-12-17T18:01:25.963Z,23.87
2018-12-17T18:03:54.672Z,23.88
2018-12-17T18:06:23.369Z,23.88
2018-12-17T18:08:52.195Z,23.90
2018-12-17T18:11:20.873Z,23.90
2018-12-17T18:13:49.578Z,23.91
2018-12-17T18:16:18.413Z,23.92
2018-12-17T18:18:47.196Z,23.93
2018-12-17T18:21:15.940Z,23.94
2018-12-17T18:23:44.642Z,23.94
2018-12-17T18:26:13.384Z,23.96
2018-12-17T18:28:42.291Z,23.98
2018-12-17T18:31:11.214Z,23.98
2018-12-17T18:33:40.257Z,24.00
2018-12-17T18:36:09.347Z,24.00
2018-12-17T18:38:38.472Z,23.99
2018-12-17T18:41:07.582Z,24.00
2018-12-17T18:43:36.429Z,24.00
2018-12-17T18:46:05.504Z,24.00
2018-12-17T18:48:35.106Z,24.01
2018-12-17T18:51:03.922Z,24.00
2018-12-17T18:53:32.898Z,24.01
2018-12-17T18:56:01.845Z,24.01
2018-12-17T18:58:30.814Z,24.01
2018-12-17T19:01:00.199Z,24.00
2018-12-17T19:03:29.278Z,24.00
2018-12-17T19:05:58.369Z,24.00
2018-12-17T19:08:27.276Z,24.00
2018-12-17T19:10:56.267Z,23.98
2018-12-17T19:13:25.309Z,23.99
2018-12-17T19:15:54.366Z,23.98
2018-12-17T19:18:24.430Z,23.98
2018-12-17T19:20:53.535Z,23.98
2018-12-17T19:23:22.614Z,23.98
2018-12-17T19:25:51.554Z,23.98
2018-12-17T19:28:20.585Z,23.97
2018-12-17T19:30:49.391Z,23.98
2018-12-17T19:33:18.557Z,23.96
2018-12-17T19:35:47.545Z,23.97
2018-12-17T19:38:16.263Z,23.95
2018-12-17T19:40:45.304Z,23.95
2018-12-17T19:43:14.058Z,23.94
2018-12-17T19:45:43.040Z,23.94
2018-12-17T19:48:12.217Z,23.94
2018-12-17T19:50:41.151Z,23.94
2018-12-17T19:53:10.086Z,23.94
2018-12-17T19:55:39.204Z,23.94
2018-12-17T19:58:08.237Z,23.93
2018-12-17T20:00:37.225Z,23.93
2018-12-17T20:03:06.514Z,23.92
2018-12-17T20:05:35.572Z,23.91
2018-12-17T20:08:04.778Z,23.92
2018-12-17T20:10:33.515Z,23.90
2018-12-17T20:13:02.470Z,23.91
2018-12-17T20:15:31.429Z,23.90
2018-12-17T20:18:00.355Z,23.91
2018-12-17T20:20:29.216Z,23.90
2018-12-17T20:22:58.178Z,23.90
2018-12-17T20:25:28.150Z,23.91
2018-12-17T20:27:57.336Z,23.90
2018-12-17T20:30:26.322Z,23.90
2018-12-17T20:32:55.319Z,23.90
2018-12-17T20:35:24.325Z,23.89
2018-12-17T20:37:53.316Z,23.89
2018-12-17T20:40:22.496Z,23.90
2018-12-17T20:42:51.457Z,23.90
2018-12-17T20:45:20.537Z,23.89
2018-12-17T20:47:49.475Z,23.89
2018-12-17T20:50:18.394Z,23.89
2018-12-17T20:52:47.274Z,23.90
2018-12-17T20:55:16.411Z,23.89
2018-12-17T20:57:45.274Z,23.89
2018-12-17T21:00:14.411Z,23.90
2018-12-17T21:02:43.279Z,23.90
2018-12-17T21:05:12.477Z,23.89
2018-12-17T21:07:41.606Z,23.89
2018-12-17T21:10:10.744Z,23.90
2018-12-17T21:12:39.678Z,23.89
2018-12-17T21:15:08.835Z,23.89
2018-12-17T21:17:37.788Z,23.90
2018-12-17T21:20:07.242Z,23.89
2018-12-17T21:22:36.134Z,23.89
2018-12-17T21:25:05.321Z,23.89
2018-12-17T21:27:34.435Z,23.89
2018-12-17T21:30:03.457Z,23.88
2018-12-17T21:32:32.632Z,23.89
2018-12-17T21:35:01.768Z,23.89
2018-12-17T21:37:30.700Z,23.89
2018-12-17T21:39:59.860Z,23.88
2018-12-17T21:42:28.833Z,23.89
2018-12-17T21:44:57.844Z,23.89
2018-12-17T21:47:26.668Z,23.89
2018-12-17T21:49:55.738Z,23.87
2018-12-17T21:52:25.600Z,23.88
2018-12-17T21:54:54.845Z,23.87
2018-12-17T21:57:23.715Z,23.88
2018-12-17T21:59:52.781Z,23.89
2018-12-17T22:02:21.931Z,23.87
2018-12-17T22:04:50.639Z,23.87
2018-12-17T22:07:19.850Z,23.87
2018-12-17T22:09:48.732Z,23.89
2018-12-17T22:12:17.818Z,23.70
2018-12-17T22:14:46.728Z,23.89
2018-12-17T22:17:15.818Z,23.88
2018-12-17T22:19:44.688Z,23.89
2018-12-17T22:22:14.462Z,23.89
2018-12-17T22:24:43.364Z,23.89
2018-12-17T22:27:12.256Z,23.89
2018-12-17T22:29:41.257Z,23.88
2018-12-17T22:32:10.093Z,23.89
2018-12-17T22:34:38.884Z,23.89
2018-12-17T22:37:07.930Z,23.90
2018-12-17T22:39:37.040Z,23.90
2018-12-17T22:42:06.156Z,23.91
2018-12-17T22:44:34.853Z,23.92
2018-12-17T22:47:03.619Z,23.92
2018-12-17T22:49:32.255Z,23.93
2018-12-17T22:52:01.219Z,23.92
2018-12-17T22:54:30.017Z,23.94
2018-12-17T22:56:59.092Z,23.94
2018-12-17T22:59:28.060Z,23.95
2018-12-17T23:04:24.569Z,23.95
2018-12-17T23:06:53.440Z,23.96
2018-12-17T23:09:20.888Z,23.97
2018-12-17T23:12:05.949Z,23.96
2018-12-17T23:14:45.996Z,23.98
2018-12-17T23:17:25.811Z,23.95
2018-12-17T23:19:54.881Z,23.95
2018-12-17T23:22:23.853Z,23.95
2018-12-17T23:24:52.669Z,23.96
2018-12-17T23:27:21.488Z,23.96
2018-12-17T23:29:50.608Z,23.96
2018-12-17T23:32:19.486Z,23.96
2018-12-17T23:34:48.406Z,23.98
2018-12-17T23:37:17.277Z,23.97
2018-12-17T23:39:45.951Z,23.98
2018-12-17T23:42:14.789Z,23.98
2018-12-17T23:44:43.504Z,23.98
2018-12-17T23:47:12.545Z,23.98
2018-12-17T23:49:41.449Z,23.98
2018-12-17T23:52:10.324Z,23.98
2018-12-17T23:54:39.370Z,23.98
2018-12-17T23:57:08.344Z,23.98
2018-12-17T23:59:37.291Z,23.98
